Time;durP1;ratioP1;P1;durP2;ratioP2;P2;SDS_P1;SDS_P2;PMS_P1;PMS_P2;Temp;Humidity;BMP_temperature;BMP_pressure;BME280_temperature;BME280_humidity;BME280_pressure;Samples;Min_cycle;Max_cycle;Signal;HPM_P1;HPM_P2
2022/03/19 00:00:58;;;;;;;;;;;;;;;;;;2066599;28;20245;-83
2022/03/19 00:01:59;;;;;;;;;;;;;;;;;;2066630;28;19913;-83
2022/03/19 00:02:59;;;;;;;;;;;;;;;;;;2058117;28;19918;-83
2022/03/19 00:03:59;;;;;;;;;;;;;;;;;;2050179;29;19938;-84
2022/03/19 00:04:59;;;;;;;;;;;;;;;;;;2058148;28;20005;-84
2022/03/19 00:06:00;;;;;;;;;;;;;;;;;;2058016;28;19918;-84
2022/03/19 00:07:02;;;;;;;;;;;;;;;;;;2066571;28;20287;-84
2022/03/19 00:08:03;;;;;;;;;;;;;;;;;;2066547;28;19914;-84
2022/03/19 00:09:04;;;;;;;;;;;;;;;;;;2058058;28;20375;-84
2022/03/19 00:10:06;;;;;;;;;;;;;;;;;;2057961;28;20393;-84
2022/03/19 00:11:07;;;;;;;;;;;;;;;;;;2066375;28;20275;-84
2022/03/19 00:12:13;;;;;;;;;;;;;;;;;;2066429;28;19918;-84
2022/03/19 00:13:14;;;;;;;;;;;;;;;;;;2057991;28;19914;-84
2022/03/19 00:14:14;;;;;;;;;;;;;;;;;;2057907;28;19914;-84
2022/03/19 00:15:16;;;;;;;;;;;;;;;;;;2058058;28;19914;-84
2022/03/19 00:16:16;;;;;;;;;;;;;;;;;;2066287;28;19913;-84
2022/03/19 00:17:17;;;;;;;;;;;;;;;;;;2066482;28;19953;-84
2022/03/19 00:18:17;;;;;;;;;;;;;;;;;;2066425;28;19918;-83
2022/03/19 00:19:17;;;;;;;;;;;;;;;;;;2066576;28;20363;-83
2022/03/19 00:20:18;;;;;;;;;;;;;;;;;;2057866;28;19989;-83
2022/03/19 00:21:18;;;;;;;;;;;;;;;;;;2057956;28;19929;-82
2022/03/19 00:22:18;;;;;;;;;;;;;;;;;;2066600;28;19968;-83
2022/03/19 00:23:19;;;;;;;;;;;;;;;;;;2066439;28;19914;-83
2022/03/19 00:24:19;;;;;;;;;;;;;;;;;;2057862;28;19950;-83
2022/03/19 00:25:19;;;;;;;;;;;;;;;;;;2049980;28;19918;-83
2022/03/19 00:26:20;;;;;;;;;;;;;;;;;;2057948;28;20532;-83
2022/03/19 00:27:20;;;;;;;;;;;;;;;;;;2066323;28;20143;-83
2022/03/19 00:28:20;;;;;;;;;;;;;;;;;;2066372;28;20332;-83
2022/03/19 00:29:21;;;;;;;;;;;;;;;;;;2057754;28;19956;-83
2022/03/19 00:30:21;;;;;;;;;;;;;;;;;;2057884;28;19950;-83
2022/03/19 00:31:23;;;;;;;;;;;;;;;;;;2066280;28;19918;-83
2022/03/19 00:32:24;;;;;;;;;;;;;;;;;;2057818;28;19938;-83
2022/03/19 00:33:24;;;;;;;;;;;;;;;;;;2057784;28;20045;-83
2022/03/19 00:34:25;;;;;;;;;;;;;;;;;;2066329;28;19945;-83
2022/03/19 00:35:25;;;;;;;;;;;;;;;;;;2057757;28;19914;-83
2022/03/19 00:36:26;;;;;;;;;;;;;;;;;;2057889;28;20293;-83
2022/03/19 00:37:26;;;;;;;;;;;;;;;;;;2066339;28;19914;-83
2022/03/19 00:38:26;;;;;;;;;;;;;;;;;;2066337;28;20290;-84
2022/03/19 00:39:27;;;;;;;;;;;;;;;;;;2066298;28;20021;-82
2022/03/19 00:40:27;;;;;;;;;;;;;;;;;;2057740;28;20008;-82
2022/03/19 00:41:27;;;;;;;;;;;;;;;;;;2057735;28;20363;-84
2022/03/19 00:42:31;;;;;;;;;;;;;;;;;;2057771;28;19972;-84
2022/03/19 00:43:31;;;;;;;;;;;;;;;;;;2050103;28;19981;-84
2022/03/19 00:44:31;;;;;;;;;;;;;;;;;;2049682;29;20356;-83
2022/03/19 00:45:32;;;;;;;;;;;;;;;;;;2057677;28;20000;-83
2022/03/19 00:46:32;;;;;;;;;;;;;;;;;;2057711;28;20375;-84
2022/03/19 00:47:35;;;;;;;;;;;;;;;;;;2057773;28;19960;-83
2022/03/19 00:48:38;;;;;;;;;;;;;;;;;;2066310;28;20013;-83
2022/03/19 00:49:38;;;;;;;;;;;;;;;;;;2057346;28;19922;-83
2022/03/19 00:50:39;;;;;;;;;;;;;;;;;;2057123;28;20379;-83
2022/03/19 00:51:40;;;;;;;;;;;;;;;;;;2066117;28;20290;-83
2022/03/19 00:52:40;;;;;;;;;;;;;;;;;;2066295;28;20318;-83
2022/03/19 00:53:41;;;;;;;;;;;;;;;;;;2057642;28;19966;-84
2022/03/19 00:54:41;;;;;;;;;;;;;;;;;;2058306;28;19918;-83
2022/03/19 00:55:41;;;;;;;;;;;;;;;;;;2058095;28;19916;-83
2022/03/19 00:56:42;;;;;;;;;;;;;;;;;;2058583;28;19918;-83
2022/03/19 00:57:43;;;;;;;;;;;;;;;;;;2066726;28;19914;-83
2022/03/19 00:58:44;;;;;;;;;;;;;;;;;;2066347;28;19913;-83
2022/03/19 00:59:44;;;;;;;;;;;;;;;;;;2066694;28;19913;-84
2022/03/19 01:00:44;;;;;;;;;;;;;;;;;;2068154;28;20031;-84
2022/03/19 01:01:45;;;;;;;;;;;;;;;;;;2068167;28;19914;-83
2022/03/19 01:02:45;;;;;;;;;;;;;;;;;;2058501;28;19925;-83
2022/03/19 01:03:45;;;;;;;;;;;;;;;;;;2058127;28;19914;-83
2022/03/19 01:04:46;;;;;;;;;;;;;;;;;;2066513;28;20350;-83
2022/03/19 01:05:46;;;;;;;;;;;;;;;;;;2066241;28;20044;-83
2022/03/19 01:06:46;;;;;;;;;;;;;;;;;;2067901;28;20319;-84
2022/03/19 01:07:48;;;;;;;;;;;;;;;;;;2066350;28;20344;-83
2022/03/19 01:08:48;;;;;;;;;;;;;;;;;;2066154;28;20032;-84
2022/03/19 01:09:48;;;;;;;;;;;;;;;;;;2057557;28;20259;-84
2022/03/19 01:10:49;;;;;;;;;;;;;;;;;;2057736;28;20383;-84
2022/03/19 01:11:49;;;;;;;;;;;;;;;;;;2065953;28;19928;-83
2022/03/19 01:12:50;;;;;;;;;;;;;;;;;;2066114;28;19914;-85
2022/03/19 01:13:50;;;;;;;;;;;;;;;;;;2057739;28;19979;-83
2022/03/19 01:14:51;;;;;;;;;;;;;;;;;;2049784;28;20009;-83
2022/03/19 01:15:51;;;;;;;;;;;;;;;;;;2041503;29;19973;-82
2022/03/19 01:16:52;;;;;;;;;;;;;;;;;;2041570;29;19915;-84
2022/03/19 01:17:52;;;;;;;;;;;;;;;;;;2057608;28;19925;-84
2022/03/19 01:18:52;;;;;;;;;;;;;;;;;;2057441;28;20370;-83
2022/03/19 01:19:53;;;;;;;;;;;;;;;;;;2057468;28;19929;-83
2022/03/19 01:20:53;;;;;;;;;;;;;;;;;;2066004;28;19925;-83
2022/03/19 01:21:56;;;;;;;;;;;;;;;;;;2066028;28;20399;-85
2022/03/19 01:22:57;;;;;;;;;;;;;;;;;;2057320;28;19914;-84
2022/03/19 01:23:57;;;;;;;;;;;;;;;;;;2057487;28;19914;-84
2022/03/19 01:25:00;;;;;;;;;;;;;;;;;;2057428;28;19918;-84
2022/03/19 01:26:01;;;;;;;;;;;;;;;;;;2057484;28;19925;-83
2022/03/19 01:27:05;;;;;;;;;;;;;;;;;;2057388;28;19914;-85
2022/03/19 01:28:06;;;;;;;;;;;;;;;;;;2057912;28;19934;-83
2022/03/19 01:29:06;;;;;;;;;;;;;;;;;;2065911;28;19953;-83
2022/03/19 01:30:07;;;;;;;;;;;;;;;;;;2065939;28;20283;-83
2022/03/19 01:31:08;;;;;;;;;;;;;;;;;;2065844;28;19914;-84
2022/03/19 01:32:08;;;;;;;;;;;;;;;;;;2057282;28;19918;-84
2022/03/19 01:33:08;;;;;;;;;;;;;;;;;;2057353;28;20354;-84
2022/03/19 01:34:09;;;;;;;;;;;;;;;;;;2065295;28;19924;-84
2022/03/19 01:35:10;;;;;;;;;;;;;;;;;;2057263;28;19949;-84
2022/03/19 01:36:11;;;;;;;;;;;;;;;;;;2057395;28;19925;-84
2022/03/19 01:37:11;;;;;;;;;;;;;;;;;;2065228;28;19921;-84
2022/03/19 01:38:12;;;;;;;;;;;;;;;;;;2065357;28;20024;-84
2022/03/19 01:39:15;;;;;;;;;;;;;;;;;;2065825;28;20009;-84
2022/03/19 01:40:17;;;;;;;;;;;;;;;;;;2065852;28;19921;-84
2022/03/19 01:41:17;;;;;;;;;;;;;;;;;;2065955;28;20020;-84
2022/03/19 01:42:23;;;;;;;;;;;;;;;;;;2065808;28;20350;-84
2022/03/19 01:43:24;;;;;;;;;;;;;;;;;;2057200;28;19925;-84
2022/03/19 01:44:24;;;;;;;;;;;;;;;;;;2057296;28;20331;-84
2022/03/19 01:45:24;;;;;;;;;;;;;;;;;;2057319;28;19965;-84
2022/03/19 01:46:25;;;;;;;;;;;;;;;;;;2065856;28;19914;-84
2022/03/19 01:47:26;;;;;;;;;;;;;;;;;;2065761;28;19956;-84
2022/03/19 01:48:26;;;;;;;;;;;;;;;;;;2057333;28;20380;-84
2022/03/19 01:49:27;;;;;;;;;;;;;;;;;;2049202;29;19919;-84
2022/03/19 01:50:27;;;;;;;;;;;;;;;;;;2057477;28;19921;-84
2022/03/19 01:51:30;;;;;;;;;;;;;;;;;;2065722;28;20064;-84
2022/03/19 01:52:31;;;;;;;;;;;;;;;;;;2065804;28;19918;-84
2022/03/19 01:53:31;;;;;;;;;;;;;;;;;;2065863;28;20381;-84
2022/03/19 01:54:32;;;;;;;;;;;;;;;;;;2065659;28;20298;-84
2022/03/19 01:55:37;;;;;;;;;;;;;;;;;;2057092;28;19961;-84
2022/03/19 01:56:40;;;;;;;;;;;;;;;;;;2057779;28;19914;-84
2022/03/19 01:57:42;;;;;;;;;;;;;;;;;;2065739;28;19929;-84
2022/03/19 01:58:45;;;;;;;;;;;;;;;;;;2065629;28;20057;-84
2022/03/19 01:59:48;;;;;;;;;;;;;;;;;;2065649;28;20370;-84
2022/03/19 02:00:49;;;;;;;;;;;;;;;;;;2065614;28;20012;-83
2022/03/19 02:01:50;;;;;;;;;;;;;;;;;;2065351;28;19924;-83
2022/03/19 02:02:51;;;;;;;;;;;;;;;;;;2057065;28;19914;-83
2022/03/19 02:03:51;;;;;;;;;;;;;;;;;;2057376;28;19922;-83
2022/03/19 02:04:52;;;;;;;;;;;;;;;;;;2056972;28;20363;-83
2022/03/19 02:05:53;;;;;;;;;;;;;;;;;;2057047;28;19922;-82
2022/03/19 02:06:54;;;;;;;;;;;;;;;;;;2057178;28;19927;-84
2022/03/19 02:07:55;;;;;;;;;;;;;;;;;;2058335;28;20025;-83
2022/03/19 02:08:55;;;;;;;;;;;;;;;;;;2057340;28;19966;-83
2022/03/19 02:09:59;;;;;;;;;;;;;;;;;;2057439;28;19914;-84
2022/03/19 02:11:02;;;;;;;;;;;;;;;;;;2056904;28;20260;-83
2022/03/19 02:12:02;;;;;;;;;;;;;;;;;;2049268;28;19936;-83
2022/03/19 02:13:03;;;;;;;;;;;;;;;;;;2057098;28;19914;-83
2022/03/19 02:14:06;;;;;;;;;;;;;;;;;;2065549;28;19920;-83
2022/03/19 02:15:08;;;;;;;;;;;;;;;;;;2057026;28;20009;-84
2022/03/19 02:16:09;;;;;;;;;;;;;;;;;;2057153;28;19929;-84
2022/03/19 02:17:09;;;;;;;;;;;;;;;;;;2065598;28;19961;-83
2022/03/19 02:18:09;;;;;;;;;;;;;;;;;;2065504;28;19922;-84
2022/03/19 02:19:10;;;;;;;;;;;;;;;;;;2056998;28;20335;-83
2022/03/19 02:20:11;;;;;;;;;;;;;;;;;;2048872;29;20383;-84
2022/03/19 02:21:12;;;;;;;;;;;;;;;;;;2056972;28;19914;-84
2022/03/19 02:22:12;;;;;;;;;;;;;;;;;;2065081;28;19976;-84
2022/03/19 02:26:00;;;;;;;;;;;;;;;;;;2065430;28;19914;-83
2022/03/19 02:27:01;;;;;;;;;;;;;;;;;;2057039;28;19914;-84
2022/03/19 02:28:01;;;;;;;;;;;;;;;;;;2057053;28;19914;-83
2022/03/19 02:29:01;;;;;;;;;;;;;;;;;;2065475;28;19914;-83
2022/03/19 02:30:02;;;;;;;;;;;;;;;;;;2056898;28;20347;-83
2022/03/19 02:31:03;;;;;;;;;;;;;;;;;;2056871;28;19918;-84
2022/03/19 02:32:04;;;;;;;;;;;;;;;;;;2065363;28;19925;-84
2022/03/19 02:33:10;;;;;;;;;;;;;;;;;;2056968;28;19977;-84
2022/03/19 02:34:10;;;;;;;;;;;;;;;;;;2057971;28;19925;-83
2022/03/19 02:35:13;;;;;;;;;;;;;;;;;;2065561;28;19967;-84
2022/03/19 02:36:13;;;;;;;;;;;;;;;;;;2065584;28;20386;-84
2022/03/19 02:37:14;;;;;;;;;;;;;;;;;;2065573;28;19914;-84
2022/03/19 02:38:14;;;;;;;;;;;;;;;;;;2065592;28;19914;-84
2022/03/19 02:39:16;;;;;;;;;;;;;;;;;;2065434;28;20574;-84
2022/03/19 02:40:17;;;;;;;;;;;;;;;;;;2065472;28;19924;-84
2022/03/19 02:41:17;;;;;;;;;;;;;;;;;;2056970;28;20407;-83
2022/03/19 02:42:19;;;;;;;;;;;;;;;;;;2048932;29;19918;-83
2022/03/19 02:43:19;;;;;;;;;;;;;;;;;;2056799;28;20318;-83
2022/03/19 02:44:20;;;;;;;;;;;;;;;;;;2065394;28;19917;-84
2022/03/19 02:45:21;;;;;;;;;;;;;;;;;;2065383;28;20009;-84
2022/03/19 02:46:35;;;;;;;;;;;;;;;;;;2065428;28;19913;-84
2022/03/19 02:47:56;;;;;;;;;;;;;;;;;;2057065;28;20001;-83
2022/03/19 02:48:55;;;;;;;;;;;;;;;;;;2059584;28;19973;-83
2022/03/19 02:49:56;;;;;;;;;;;;;;;;;;2056875;28;19922;-83
2022/03/19 02:50:58;;;;;;;;;;;;;;;;;;2056875;28;19958;-84
2022/03/19 02:51:59;;;;;;;;;;;;;;;;;;2056823;28;19922;-84
2022/03/19 02:53:02;;;;;;;;;;;;;;;;;;2056783;28;19914;-83
2022/03/19 02:54:03;;;;;;;;;;;;;;;;;;2056958;28;19914;-83
2022/03/19 02:55:04;;;;;;;;;;;;;;;;;;2056855;28;19914;-83
2022/03/19 02:56:20;;;;;;;;;;;;;;;;;;2065258;28;19968;-83
2022/03/19 02:57:20;;;;;;;;;;;;;;;;;;2056831;28;19921;-84
2022/03/19 02:58:20;;;;;;;;;;;;;;;;;;2056841;28;19961;-83
2022/03/19 02:59:22;;;;;;;;;;;;;;;;;;2065288;28;20048;-83
2022/03/19 03:00:23;;;;;;;;;;;;;;;;;;2065331;28;19925;-83
2022/03/19 03:01:23;;;;;;;;;;;;;;;;;;2065265;28;20292;-83
2022/03/19 03:02:23;;;;;;;;;;;;;;;;;;2065352;28;19914;-84
2022/03/19 03:03:23;;;;;;;;;;;;;;;;;;2056752;28;19965;-84
2022/03/19 03:04:25;;;;;;;;;;;;;;;;;;2056915;28;20001;-82
2022/03/19 03:05:25;;;;;;;;;;;;;;;;;;2056780;28;20352;-83
2022/03/19 03:06:26;;;;;;;;;;;;;;;;;;2065310;28;19914;-83
2022/03/19 03:07:26;;;;;;;;;;;;;;;;;;2065336;28;20386;-85
2022/03/19 03:08:26;;;;;;;;;;;;;;;;;;2065226;28;20021;-83
2022/03/19 03:09:27;;;;;;;;;;;;;;;;;;2065261;28;19968;-83
2022/03/19 03:10:27;;;;;;;;;;;;;;;;;;2065411;28;20351;-83
2022/03/19 03:11:31;;;;;;;;;;;;;;;;;;2065236;28;19922;-83
2022/03/19 03:12:31;;;;;;;;;;;;;;;;;;2065425;28;19914;-83
2022/03/19 03:13:31;;;;;;;;;;;;;;;;;;2065976;28;19984;-83
2022/03/19 03:14:32;;;;;;;;;;;;;;;;;;2058455;28;19918;-83
2022/03/19 03:15:32;;;;;;;;;;;;;;;;;;2058453;28;19925;-83
2022/03/19 03:16:33;;;;;;;;;;;;;;;;;;2066883;28;19913;-83
2022/03/19 03:17:34;;;;;;;;;;;;;;;;;;2066848;28;19922;-83
2022/03/19 03:18:34;;;;;;;;;;;;;;;;;;2058452;28;20006;-83
2022/03/19 03:19:35;;;;;;;;;;;;;;;;;;2058201;28;19996;-82
2022/03/19 03:20:35;;;;;;;;;;;;;;;;;;2066893;28;19914;-82
2022/03/19 03:21:36;;;;;;;;;;;;;;;;;;2058449;28;19926;-83
2022/03/19 03:22:37;;;;;;;;;;;;;;;;;;2050404;29;19981;-83
2022/03/19 03:23:38;;;;;;;;;;;;;;;;;;2050380;28;19915;-83
2022/03/19 03:24:38;;;;;;;;;;;;;;;;;;2058459;28;19918;-84
2022/03/19 03:25:38;;;;;;;;;;;;;;;;;;2066739;28;19921;-83
2022/03/19 03:26:39;;;;;;;;;;;;;;;;;;2066888;28;19913;-83
2022/03/19 03:27:40;;;;;;;;;;;;;;;;;;2066878;28;19921;-82
2022/03/19 03:28:40;;;;;;;;;;;;;;;;;;2066922;28;19945;-83
2022/03/19 03:29:41;;;;;;;;;;;;;;;;;;2058438;28;19914;-83
2022/03/19 03:30:42;;;;;;;;;;;;;;;;;;2058201;28;20013;-83
2022/03/19 03:31:42;;;;;;;;;;;;;;;;;;2058260;28;19918;-83
2022/03/19 03:32:43;;;;;;;;;;;;;;;;;;2058204;28;19914;-84
2022/03/19 03:33:44;;;;;;;;;;;;;;;;;;2058363;28;19925;-84
2022/03/19 03:34:44;;;;;;;;;;;;;;;;;;2058213;28;20016;-83
2022/03/19 03:35:44;;;;;;;;;;;;;;;;;;2050220;28;19961;-84
2022/03/19 03:36:45;;;;;;;;;;;;;;;;;;2058324;28;19914;-83
2022/03/19 03:37:45;;;;;;;;;;;;;;;;;;2058206;28;19968;-84
2022/03/19 03:38:45;;;;;;;;;;;;;;;;;;2058306;28;20020;-83
2022/03/19 03:39:46;;;;;;;;;;;;;;;;;;2058196;28;19914;-83
2022/03/19 03:40:46;;;;;;;;;;;;;;;;;;2058267;28;19957;-84
2022/03/19 03:41:47;;;;;;;;;;;;;;;;;;2058472;28;20009;-83
2022/03/19 03:42:48;;;;;;;;;;;;;;;;;;2058203;28;19914;-83
2022/03/19 03:43:48;;;;;;;;;;;;;;;;;;2058309;28;20338;-83
2022/03/19 03:44:48;;;;;;;;;;;;;;;;;;2058103;28;19925;-83
2022/03/19 03:45:49;;;;;;;;;;;;;;;;;;2058141;28;20386;-83
2022/03/19 03:46:49;;;;;;;;;;;;;;;;;;2058336;28;19914;-83
2022/03/19 03:47:50;;;;;;;;;;;;;;;;;;2058309;28;19914;-83
2022/03/19 03:48:50;;;;;;;;;;;;;;;;;;2058273;28;19924;-83
2022/03/19 03:49:53;;;;;;;;;;;;;;;;;;2058227;28;19985;-83
2022/03/19 03:50:55;;;;;;;;;;;;;;;;;;2066652;28;19925;-83
2022/03/19 03:51:55;;;;;;;;;;;;;;;;;;2066574;28;19929;-83
2022/03/19 03:52:56;;;;;;;;;;;;;;;;;;2066606;28;19913;-83
2022/03/19 03:53:56;;;;;;;;;;;;;;;;;;2066668;28;19918;-83
2022/03/19 03:54:57;;;;;;;;;;;;;;;;;;2066222;28;19988;-83
2022/03/19 03:55:57;;;;;;;;;;;;;;;;;;2066107;28;19913;-83
2022/03/19 03:56:58;;;;;;;;;;;;;;;;;;2066672;28;19920;-83
2022/03/19 03:57:59;;;;;;;;;;;;;;;;;;2066713;28;20379;-83
2022/03/19 03:58:59;;;;;;;;;;;;;;;;;;2066729;28;19914;-82
2022/03/19 04:00:00;;;;;;;;;;;;;;;;;;2066630;28;20256;-83
2022/03/19 04:01:00;;;;;;;;;;;;;;;;;;2066597;28;19996;-82
2022/03/19 04:02:01;;;;;;;;;;;;;;;;;;2066454;28;20377;-83
2022/03/19 04:03:03;;;;;;;;;;;;;;;;;;2066550;28;19918;-83
2022/03/19 04:04:04;;;;;;;;;;;;;;;;;;2066862;28;20333;-83
2022/03/19 04:05:08;;;;;;;;;;;;;;;;;;2057948;28;19918;-83
2022/03/19 04:06:08;;;;;;;;;;;;;;;;;;2058550;28;19914;-83
2022/03/19 04:07:08;;;;;;;;;;;;;;;;;;2066526;28;19961;-83
2022/03/19 04:08:09;;;;;;;;;;;;;;;;;;2066302;28;19926;-83
2022/03/19 04:09:09;;;;;;;;;;;;;;;;;;2066699;28;19950;-76
2022/03/19 04:10:09;;;;;;;;;;;;;;;;;;2066565;28;19925;-78
2022/03/19 04:11:10;;;;;;;;;;;;;;;;;;2066577;28;19914;-77
2022/03/19 04:12:10;;;;;;;;;;;;;;;;;;2066514;28;19914;-77
2022/03/19 04:13:11;;;;;;;;;;;;;;;;;;2057972;28;19921;-75
2022/03/19 04:14:11;;;;;;;;;;;;;;;;;;2057769;28;19925;-75
2022/03/19 04:15:11;;;;;;;;;;;;;;;;;;2057900;28;19962;-75
2022/03/19 04:16:12;;;;;;;;;;;;;;;;;;2057891;28;20289;-75
2022/03/19 04:17:12;;;;;;;;;;;;;;;;;;2066342;28;20401;-76
2022/03/19 04:18:15;;;;;;;;;;;;;;;;;;2066184;28;19929;-77
2022/03/19 04:19:15;;;;;;;;;;;;;;;;;;2057785;28;20012;-77
2022/03/19 04:20:18;;;;;;;;;;;;;;;;;;2057574;28;19933;-76
2022/03/19 04:21:19;;;;;;;;;;;;;;;;;;2058246;28;19918;-77
2022/03/19 04:22:19;;;;;;;;;;;;;;;;;;2066216;28;19937;-77
2022/03/19 04:23:20;;;;;;;;;;;;;;;;;;2066210;28;20305;-77
2022/03/19 04:24:20;;;;;;;;;;;;;;;;;;2066149;28;19934;-74
2022/03/19 04:25:24;;;;;;;;;;;;;;;;;;2066402;28;19914;-77
2022/03/19 04:26:26;;;;;;;;;;;;;;;;;;2066491;28;19921;-76
2022/03/19 04:27:27;;;;;;;;;;;;;;;;;;2058054;28;19926;-77
2022/03/19 04:28:27;;;;;;;;;;;;;;;;;;2049903;28;19918;-77
2022/03/19 04:29:27;;;;;;;;;;;;;;;;;;2057652;28;20168;-75
2022/03/19 04:30:28;;;;;;;;;;;;;;;;;;2057695;28;19918;-77
2022/03/19 04:31:28;;;;;;;;;;;;;;;;;;2057699;28;19985;-78
2022/03/19 04:32:31;;;;;;;;;;;;;;;;;;2057837;28;20134;-77
2022/03/19 04:33:32;;;;;;;;;;;;;;;;;;2057849;28;19914;-77
2022/03/19 04:34:32;;;;;;;;;;;;;;;;;;2057747;28;20282;-77
2022/03/19 04:36:51;;;;;;;;;;;;;;;;;;2066518;28;19910;-75
2022/03/19 04:37:51;;;;;;;;;;;;;;;;;;2057774;28;20375;-77
2022/03/19 04:38:52;;;;;;;;;;;;;;;;;;2057756;28;20367;-76
2022/03/19 04:40:10;;;;;;;;;;;;;;;;;;2066169;28;19913;-75
2022/03/19 04:41:12;;;;;;;;;;;;;;;;;;2066258;28;20306;-76
2022/03/19 04:42:12;;;;;;;;;;;;;;;;;;2057607;28;20414;-77
2022/03/19 04:43:23;;;;;;;;;;;;;;;;;;2057917;28;19914;-77
2022/03/19 04:44:25;;;;;;;;;;;;;;;;;;2065803;28;19918;-77
2022/03/19 04:45:28;;;;;;;;;;;;;;;;;;2065804;28;19914;-77
2022/03/19 04:46:29;;;;;;;;;;;;;;;;;;2066345;28;19921;-76
2022/03/19 04:47:32;;;;;;;;;;;;;;;;;;2066280;28;19922;-76
2022/03/19 04:48:34;;;;;;;;;;;;;;;;;;2066242;28;19914;-78
2022/03/19 04:49:35;;;;;;;;;;;;;;;;;;2066198;28;19914;-77
2022/03/19 04:50:39;;;;;;;;;;;;;;;;;;2057716;28;20419;-77
2022/03/19 04:51:40;;;;;;;;;;;;;;;;;;2058013;28;20016;-75
2022/03/19 04:52:47;;;;;;;;;;;;;;;;;;2065821;28;20049;-77
2022/03/19 04:53:52;;;;;;;;;;;;;;;;;;2067759;28;19953;-77
2022/03/19 04:54:57;;;;;;;;;;;;;;;;;;2066224;28;19921;-77
2022/03/19 04:55:59;;;;;;;;;;;;;;;;;;2057506;28;19925;-77
2022/03/19 04:57:02;;;;;;;;;;;;;;;;;;2057932;28;19918;-76
2022/03/19 04:58:13;;;;;;;;;;;;;;;;;;2057515;28;19984;-75
2022/03/19 04:59:19;;;;;;;;;;;;;;;;;;2061679;28;20034;-77
2022/03/19 05:00:20;;;;;;;;;;;;;;;;;;2066192;28;19926;-76
2022/03/19 05:01:30;;;;;;;;;;;;;;;;;;2066175;28;19914;-75
2022/03/19 05:02:43;;;;;;;;;;;;;;;;;;;;;
2022/03/19 05:03:46;;;;;;;;;;;;;;;;;;2060694;28;19925;-77
2022/03/19 05:04:48;;;;;;;;;;;;;;;;;;2066244;28;20264;-77
2022/03/19 05:05:52;;;;;;;;;;;;;;;;;;2066281;28;19918;-75
2022/03/19 05:06:54;;;;;;;;;;;;;;;;;;2066205;28;20382;-77
2022/03/19 05:07:55;;;;;;;;;;;;;;;;;;2066151;28;20167;-75
2022/03/19 05:11:33;;;;;;;;;;;;;;;;;;2066066;28;19949;-75
2022/03/19 05:12:35;;;;;;;;;;;;;;;;;;2057446;28;19918;-76
2022/03/19 05:13:35;;;;;;;;;;;;;;;;;;2057754;28;19914;-76
2022/03/19 05:14:38;;;;;;;;;;;;;;;;;;2066048;28;19921;-77
2022/03/19 05:15:39;;;;;;;;;;;;;;;;;;2065987;28;19918;-75
2022/03/19 05:16:41;;;;;;;;;;;;;;;;;;2066061;28;20354;-75
2022/03/19 05:17:42;;;;;;;;;;;;;;;;;;2057510;28;20284;-75
2022/03/19 05:18:42;;;;;;;;;;;;;;;;;;2057512;28;19918;-76
2022/03/19 05:19:43;;;;;;;;;;;;;;;;;;2065951;28;19921;-76
2022/03/19 05:20:43;;;;;;;;;;;;;;;;;;2065963;28;19914;-76
2022/03/19 05:21:43;;;;;;;;;;;;;;;;;;2057459;28;19953;-75
2022/03/19 05:22:44;;;;;;;;;;;;;;;;;;2049437;29;20303;-76
2022/03/19 05:23:45;;;;;;;;;;;;;;;;;;2057578;28;20375;-76
2022/03/19 05:24:45;;;;;;;;;;;;;;;;;;2065960;28;20428;-75
2022/03/19 05:25:46;;;;;;;;;;;;;;;;;;2057496;28;19914;-75
2022/03/19 05:26:46;;;;;;;;;;;;;;;;;;2049350;29;19926;-75
2022/03/19 05:27:47;;;;;;;;;;;;;;;;;;2057518;28;20394;-75
2022/03/19 05:28:47;;;;;;;;;;;;;;;;;;2057411;28;19925;-76
2022/03/19 05:29:48;;;;;;;;;;;;;;;;;;2049322;29;19914;-76
2022/03/19 05:30:48;;;;;;;;;;;;;;;;;;2057424;28;19957;-76
2022/03/19 05:31:51;;;;;;;;;;;;;;;;;;2057341;28;19963;-76
2022/03/19 05:32:51;;;;;;;;;;;;;;;;;;2049498;28;19919;-77
2022/03/19 05:35:10;;;;;;;;;;;;;;;;;;2066082;28;20351;-77
2022/03/19 05:36:11;;;;;;;;;;;;;;;;;;2056621;28;19914;-76
2022/03/19 05:37:13;;;;;;;;;;;;;;;;;;2057390;28;19914;-76
2022/03/19 05:39:47;;;;;;;;;;;;;;;;;;2040060;29;19926;-76
2022/03/19 05:42:46;;;;;;;;;;;;;;;;;;2023933;29;19916;-77
2022/03/19 05:43:49;;;;;;;;;;;;;;;;;;2040658;29;20365;-78
2022/03/19 05:45:15;;;;;;;;;;;;;;;;;;;;;
2022/03/19 05:46:33;;;;;;;;;;;;;;;;;;2060546;28;19965;-77
2022/03/19 05:47:42;;;;;;;;;;;;;;;;;;2068510;28;19925;-76
2022/03/19 05:48:46;;;;;;;;;;;;;;;;;;2057215;28;19915;-77
2022/03/19 05:50:06;;;;;;;;;;;;;;;;;;2057462;28;20370;-77
2022/03/19 05:51:18;;;;;;;;;;;;;;;;;;2050239;28;19914;-77
2022/03/19 05:52:26;;;;;;;;;;;;;;;;;;2060403;28;20124;-76
2022/03/19 05:53:26;;;;;;;;;;;;;;;;;;2057133;28;20009;-77
2022/03/19 05:56:29;;;;;;;;;;;;;;;;;;;;;
2022/03/19 06:01:48;;;;;;;;;;;;;;;;;;1994112;29;19916;-76
2022/03/19 06:04:48;;;;;;;;;;;;;;;;;;2009913;29;19920;-79
2022/03/19 06:06:37;;;;;;;;;;;;;;;;;;1978671;30;19925;-78
2022/03/19 06:08:01;;;;;;;;;;;;;;;;;;1978842;29;19917;-75
2022/03/19 06:09:02;;;;;;;;;;;;;;;;;;1979671;30;19918;-78
2022/03/19 06:10:04;;;;;;;;;;;;;;;;;;2012444;29;19971;-78
2022/03/19 06:11:05;;;;;;;;;;;;;;;;;;2033045;29;19947;-78
2022/03/19 06:12:14;;;;;;;;;;;;;;;;;;2032900;29;19932;-76
2022/03/19 06:13:14;;;;;;;;;;;;;;;;;;2057971;28;19917;-76
2022/03/19 06:14:15;;;;;;;;;;;;;;;;;;2065639;28;20030;-78
2022/03/19 06:15:20;;;;;;;;;;;;;;;;;;2065624;28;19921;-76
2022/03/19 06:16:20;;;;;;;;;;;;;;;;;;2057059;28;19950;-76
2022/03/19 06:17:21;;;;;;;;;;;;;;;;;;2049009;29;19918;-77
2022/03/19 06:18:21;;;;;;;;;;;;;;;;;;2057044;28;19914;-77
2022/03/19 06:19:21;;;;;;;;;;;;;;;;;;2056771;28;19914;-76
2022/03/19 06:20:23;;;;;;;;;;;;;;;;;;2056793;28;19922;-77
2022/03/19 06:21:23;;;;;;;;;;;;;;;;;;2057135;28;19918;-77
2022/03/19 06:22:26;;;;;;;;;;;;;;;;;;2065339;28;20322;-77
2022/03/19 06:23:29;;;;;;;;;;;;;;;;;;2065469;28;19922;-77
2022/03/19 06:24:32;;;;;;;;;;;;;;;;;;2065549;28;20036;-77
2022/03/19 06:25:34;;;;;;;;;;;;;;;;;;2065482;28;19918;-78
2022/03/19 06:26:38;;;;;;;;;;;;;;;;;;2065628;28;19921;-76
2022/03/19 06:27:41;;;;;;;;;;;;;;;;;;2065439;28;19918;-76
2022/03/19 06:28:44;;;;;;;;;;;;;;;;;;2056894;28;19924;-77
2022/03/19 06:29:44;;;;;;;;;;;;;;;;;;2057417;28;20014;-77
2022/03/19 06:30:48;;;;;;;;;;;;;;;;;;2056602;28;19915;-77
2022/03/19 06:31:49;;;;;;;;;;;;;;;;;;2056837;28;20313;-76
2022/03/19 06:32:51;;;;;;;;;;;;;;;;;;2056848;28;19918;-77
2022/03/19 06:33:55;;;;;;;;;;;;;;;;;;2056722;28;19914;-78
2022/03/19 06:35:05;;;;;;;;;;;;;;;;;;2057304;28;19914;-77
2022/03/19 06:37:43;;;;;;;;;;;;;;;;;;2065503;28;20351;-77
2022/03/19 06:38:45;;;;;;;;;;;;;;;;;;2065309;28;20004;-77
2022/03/19 06:39:56;;;;;;;;;;;;;;;;;;2064782;28;19920;-77
2022/03/19 06:40:59;;;;;;;;;;;;;;;;;;2056842;28;19944;-77
2022/03/19 06:42:09;;;;;;;;;;;;;;;;;;2057246;28;19929;-77
2022/03/19 06:43:10;;;;;;;;;;;;;;;;;;2056914;28;19914;-76
2022/03/19 06:44:27;;;;;;;;;;;;;;;;;;2056885;28;19938;-78
2022/03/19 06:45:27;;;;;;;;;;;;;;;;;;2056697;28;19914;-78
2022/03/19 06:46:40;;;;;;;;;;;;;;;;;;;;;
2022/03/19 06:47:43;;;;;;;;;;;;;;;;;;2065132;28;19996;-79
2022/03/19 06:48:51;;;;;;;;;;;;;;;;;;2064950;28;19914;-78
2022/03/19 06:49:51;;;;;;;;;;;;;;;;;;2065418;28;20363;-78
2022/03/19 06:50:54;;;;;;;;;;;;;;;;;;2065267;28;19975;-78
2022/03/19 06:52:24;;;;;;;;;;;;;;;;;;;;;
2022/03/19 06:53:28;;;;;;;;;;;;;;;;;;2061078;28;20359;-77
2022/03/19 06:54:33;;;;;;;;;;;;;;;;;;2065413;28;20283;-78
2022/03/19 06:55:37;;;;;;;;;;;;;;;;;;2065443;28;20000;-77
2022/03/19 06:57:01;;;;;;;;;;;;;;;;;;2065330;28;19925;-77
2022/03/19 06:58:07;;;;;;;;;;;;;;;;;;2056887;28;20351;-78
2022/03/19 06:59:15;;;;;;;;;;;;;;;;;;2057505;28;20259;-78
2022/03/19 07:00:25;;;;;;;;;;;;;;;;;;2065545;28;19940;-78
2022/03/19 07:01:36;;;;;;;;;;;;;;;;;;;;;
2022/03/19 07:02:55;;;;;;;;;;;;;;;;;;2065293;28;19918;-77
2022/03/19 07:03:55;;;;;;;;;;;;;;;;;;2065552;28;19922;-78
2022/03/19 07:05:08;;;;;;;;;;;;;;;;;;;;;
2022/03/19 07:06:14;;;;;;;;;;;;;;;;;;2058487;28;19918;-78
2022/03/19 07:07:22;;;;;;;;;;;;;;;;;;2056786;28;19941;-77
2022/03/19 07:08:32;;;;;;;;;;;;;;;;;;2060526;28;20322;-79
2022/03/19 07:09:43;;;;;;;;;;;;;;;;;;2065292;28;19992;-77
2022/03/19 07:10:53;;;;;;;;;;;;;;;;;;;;;
2022/03/19 07:11:54;;;;;;;;;;;;;;;;;;2064063;28;20004;-78
2022/03/19 07:13:03;;;;;;;;;;;;;;;;;;2065605;28;19924;-78
2022/03/19 07:14:06;;;;;;;;;;;;;;;;;;2065199;28;20334;-78
2022/03/19 07:15:06;;;;;;;;;;;;;;;;;;2056732;28;19925;-77
2022/03/19 07:16:09;;;;;;;;;;;;;;;;;;2048693;28;19915;-78
2022/03/19 07:17:22;;;;;;;;;;;;;;;;;;;;;
2022/03/19 07:19:50;;;;;;;;;;;;;;;;;;2054589;28;19918;-77
2022/03/19 07:21:01;;;;;;;;;;;;;;;;;;2056752;28;19914;-77
2022/03/19 07:22:02;;;;;;;;;;;;;;;;;;2050203;28;20364;-79
2022/03/19 07:23:09;;;;;;;;;;;;;;;;;;2056912;28;19973;-78
2022/03/19 07:24:14;;;;;;;;;;;;;;;;;;2065391;28;20008;-76
2022/03/19 07:25:28;;;;;;;;;;;;;;;;;;2068232;28;19918;-78
2022/03/19 07:26:33;;;;;;;;;;;;;;;;;;2056782;28;19941;-77
2022/03/19 07:27:52;;;;;;;;;;;;;;;;;;2057394;28;19921;-77
2022/03/19 07:29:01;;;;;;;;;;;;;;;;;;2065270;28;19914;-78
2022/03/19 07:30:04;;;;;;;;;;;;;;;;;;2056883;28;20013;-78
2022/03/19 07:31:04;;;;;;;;;;;;;;;;;;2057150;28;19914;-77
2022/03/19 07:32:15;;;;;;;;;;;;;;;;;;2056721;28;20280;-77